createdAt,value
2023-03-06T00:01:01.640Z,21.43
2023-03-06T00:03:46.533Z,22.43
2023-03-06T00:06:31.284Z,22.90
2023-03-06T00:09:16.302Z,22.63
2023-03-06T00:12:01.282Z,23.07
2023-03-06T00:14:46.199Z,23.73
2023-03-06T00:17:31.055Z,23.20
2023-03-06T00:20:15.826Z,23.43
2023-03-06T00:23:00.694Z,23.67
2023-03-06T00:25:46.046Z,23.70
2023-03-06T00:28:31.493Z,24.77
2023-03-06T00:31:16.235Z,23.07
2023-03-06T00:34:01.414Z,24.03
2023-03-06T00:36:46.634Z,23.57
2023-03-06T00:39:31.408Z,25.90
2023-03-06T00:42:17.101Z,24.70
2023-03-06T00:45:02.189Z,24.93
2023-03-06T00:47:47.239Z,25.03
2023-03-06T00:50:32.045Z,23.67
2023-03-06T00:53:16.750Z,26.30
2023-03-06T00:56:01.641Z,24.23
2023-03-06T00:58:46.602Z,23.87
2023-03-06T01:01:31.349Z,23.67
2023-03-06T01:04:16.088Z,22.43
2023-03-06T01:07:00.993Z,22.70
2023-03-06T01:09:45.829Z,23.23
2023-03-06T01:12:30.795Z,21.73
2023-03-06T01:15:15.519Z,22.97
2023-03-06T01:18:00.401Z,23.57
2023-03-06T01:20:45.160Z,22.90
2023-03-06T01:23:30.049Z,24.63
2023-03-06T01:26:14.882Z,22.83
2023-03-06T01:28:59.649Z,22.90
2023-03-06T01:31:44.501Z,23.33
2023-03-06T01:34:29.245Z,24.97
2023-03-06T01:37:14.149Z,25.67
2023-03-06T01:39:58.871Z,24.97
2023-03-06T01:42:44.381Z,25.33
2023-03-06T01:45:30.126Z,25.30
2023-03-06T01:48:15.741Z,26.37
2023-03-06T01:51:00.909Z,24.17
2023-03-06T01:53:46.132Z,24.00
2023-03-06T01:56:31.127Z,25.30
2023-03-06T01:59:16.459Z,24.63
2023-03-06T02:02:02.513Z,24.80
2023-03-06T02:04:48.021Z,24.37
2023-03-06T02:07:33.513Z,27.40
2023-03-06T02:10:19.322Z,27.03
2023-03-06T02:13:04.478Z,25.07
2023-03-06T02:15:49.407Z,25.37
2023-03-06T02:18:34.372Z,26.30
2023-03-06T02:21:28.236Z,25.00
2023-03-06T02:24:22.096Z,25.77
2023-03-06T02:27:07.523Z,25.13
2023-03-06T02:29:52.582Z,25.57
2023-03-06T02:32:37.434Z,25.73
2023-03-06T02:35:27.385Z,25.63
2023-03-06T02:38:14.830Z,27.40
2023-03-06T02:41:01.573Z,28.00
2023-03-06T02:43:47.733Z,26.60
2023-03-06T02:46:32.589Z,27.93
2023-03-06T02:49:17.397Z,27.33
2023-03-06T02:52:02.347Z,26.07
2023-03-06T02:54:47.225Z,26.47
2023-03-06T02:57:32.014Z,24.37
2023-03-06T03:00:17.282Z,22.90
2023-03-06T03:03:02.562Z,25.97
2023-03-06T03:05:47.721Z,23.27
2023-03-06T03:08:33.544Z,23.63
2023-03-06T03:11:18.473Z,24.87
2023-03-06T03:14:03.534Z,23.47
2023-03-06T03:16:48.450Z,25.13
2023-03-06T03:19:33.212Z,25.27
2023-03-06T03:22:17.970Z,27.03
2023-03-06T03:25:04.046Z,25.63
2023-03-06T03:27:48.830Z,26.43
2023-03-06T03:30:33.633Z,24.00
2023-03-06T03:33:18.404Z,25.43
2023-03-06T03:36:04.439Z,27.43
2023-03-06T03:38:49.722Z,25.83
2023-03-06T03:41:34.722Z,25.60
2023-03-06T03:44:19.625Z,27.73
2023-03-06T03:47:05.153Z,27.07
2023-03-06T03:49:50.454Z,27.77
2023-03-06T03:52:35.766Z,26.23
2023-03-06T03:55:20.732Z,25.27
2023-03-06T03:58:05.797Z,25.00
2023-03-06T04:00:50.567Z,23.77
2023-03-06T04:03:35.838Z,25.07
2023-03-06T04:06:20.959Z,27.00
2023-03-06T04:09:06.186Z,25.20
2023-03-06T04:11:50.909Z,25.27
2023-03-06T04:14:35.710Z,27.17
2023-03-06T04:17:20.574Z,25.93
2023-03-06T04:20:05.513Z,27.47
2023-03-06T04:22:50.845Z,28.23
2023-03-06T04:25:35.785Z,26.73
2023-03-06T04:28:20.700Z,24.70
2023-03-06T04:31:05.611Z,26.00
2023-03-06T04:33:50.640Z,28.53
2023-03-06T04:36:35.298Z,28.07
2023-03-06T04:39:20.075Z,27.77
2023-03-06T04:42:05.062Z,27.50
2023-03-06T04:44:50.045Z,29.23
2023-03-06T04:47:35.520Z,28.07
2023-03-06T04:50:20.795Z,27.27
2023-03-06T04:53:05.872Z,28.07
2023-03-06T04:55:51.003Z,29.13
2023-03-06T04:58:36.277Z,29.23
2023-03-06T05:01:21.450Z,29.33
2023-03-06T05:04:06.551Z,29.37
2023-03-06T05:06:51.768Z,28.83
2023-03-06T05:09:38.245Z,27.17
2023-03-06T05:12:23.777Z,25.00
2023-03-06T05:15:09.362Z,26.30
2023-03-06T05:17:55.309Z,24.77
2023-03-06T05:20:40.336Z,25.90
2023-03-06T05:23:25.906Z,25.43
2023-03-06T05:26:11.871Z,25.23
2023-03-06T05:28:57.129Z,26.43
2023-03-06T05:31:41.881Z,27.30
2023-03-06T05:34:26.706Z,26.67
2023-03-06T05:37:11.632Z,29.10
2023-03-06T05:39:56.698Z,29.80
2023-03-06T05:42:41.586Z,30.53
2023-03-06T05:45:26.465Z,27.87
2023-03-06T05:48:12.597Z,30.30
2023-03-06T05:50:58.208Z,29.90
2023-03-06T05:53:43.286Z,28.83
2023-03-06T05:56:28.216Z,28.90
2023-03-06T05:59:13.124Z,28.60
2023-03-06T06:01:57.939Z,29.33
2023-03-06T06:04:42.947Z,30.53
2023-03-06T06:07:27.782Z,29.30
2023-03-06T06:10:12.786Z,29.80
2023-03-06T06:12:57.663Z,28.80
2023-03-06T06:15:42.318Z,29.67
2023-03-06T06:18:27.349Z,28.70
2023-03-06T06:21:12.625Z,28.23
2023-03-06T06:23:57.446Z,29.30
2023-03-06T06:26:42.448Z,30.13
2023-03-06T06:29:27.978Z,30.30
2023-03-06T06:32:13.111Z,30.00
2023-03-06T06:34:58.057Z,27.30
2023-03-06T06:37:43.386Z,28.73
2023-03-06T06:40:29.539Z,30.40
2023-03-06T06:43:14.326Z,34.80
2023-03-06T06:46:18.686Z,39.03
2023-03-06T06:49:04.396Z,35.40
2023-03-06T06:51:49.343Z,32.73
2023-03-06T06:54:34.694Z,76.67
2023-03-06T06:57:19.937Z,32.50
2023-03-06T07:00:05.341Z,33.40
2023-03-06T07:02:51.212Z,32.80
2023-03-06T07:05:36.099Z,32.07
2023-03-06T07:08:21.087Z,28.93
2023-03-06T07:11:07.806Z,28.30
2023-03-06T07:13:52.865Z,27.20
2023-03-06T07:16:37.724Z,28.67
2023-03-06T07:19:22.708Z,26.90
2023-03-06T07:22:07.751Z,28.13
2023-03-06T07:24:52.854Z,27.47
2023-03-06T07:27:37.902Z,27.40
2023-03-06T07:30:23.590Z,28.57
2023-03-06T07:33:08.767Z,29.13
2023-03-06T07:35:53.618Z,29.30
2023-03-06T07:38:38.470Z,31.47
2023-03-06T07:41:23.498Z,31.27
2023-03-06T07:44:08.545Z,30.87
2023-03-06T07:46:53.599Z,32.47
2023-03-06T07:49:38.745Z,34.17
2023-03-06T07:52:23.602Z,34.80
2023-03-06T07:55:09.619Z,34.40
2023-03-06T07:57:54.454Z,33.50
2023-03-06T08:00:39.259Z,30.93
2023-03-06T08:03:24.399Z,31.30
2023-03-06T08:06:13.216Z,32.57
2023-03-06T08:08:58.351Z,32.20
2023-03-06T08:11:45.174Z,30.97
2023-03-06T08:14:30.065Z,30.17
2023-03-06T08:17:14.958Z,29.27
2023-03-06T08:19:59.784Z,30.20
2023-03-06T08:22:45.460Z,30.07
2023-03-06T08:25:30.293Z,30.30
2023-03-06T08:28:15.062Z,29.67
2023-03-06T08:31:06.881Z,30.83
2023-03-06T08:33:52.755Z,29.80
2023-03-06T08:36:37.924Z,31.00
2023-03-06T08:39:23.700Z,25.30
2023-03-06T08:42:09.507Z,26.70
2023-03-06T08:44:54.550Z,27.90
2023-03-06T08:47:39.473Z,23.23
2023-03-06T08:50:24.312Z,23.60
2023-03-06T08:53:08.994Z,23.80
2023-03-06T08:55:53.803Z,20.93
2023-03-06T08:58:38.575Z,16.50
2023-03-06T09:01:25.091Z,14.20
2023-03-06T09:04:11.654Z,14.37
2023-03-06T09:06:56.750Z,14.77
2023-03-06T09:09:42.066Z,14.97
2023-03-06T09:12:28.104Z,13.73
2023-03-06T09:15:14.576Z,15.30
2023-03-06T09:17:59.536Z,13.83
2023-03-06T09:20:44.410Z,12.40
2023-03-06T09:23:29.526Z,13.27
2023-03-06T09:26:14.800Z,12.83
2023-03-06T09:28:59.565Z,13.30
2023-03-06T09:31:44.779Z,13.17
2023-03-06T09:34:29.935Z,13.00
2023-03-06T09:37:16.292Z,13.60
2023-03-06T09:40:01.694Z,12.47
2023-03-06T09:42:46.438Z,12.57
2023-03-06T09:45:33.822Z,12.50
2023-03-06T09:48:22.247Z,13.20
2023-03-06T09:51:16.233Z,13.30
2023-03-06T09:54:14.317Z,14.97
2023-03-06T09:56:59.293Z,13.63
2023-03-06T09:59:45.518Z,12.53
2023-03-06T10:02:43.129Z,11.93
2023-03-06T10:05:32.958Z,12.40
2023-03-06T10:08:44.330Z,12.47
2023-03-06T10:14:31.630Z,13.93
2023-03-06T10:17:18.394Z,13.73
2023-03-06T10:20:18.854Z,14.03
2023-03-06T10:23:24.744Z,13.20
2023-03-06T10:26:30.331Z,13.47
2023-03-06T10:29:15.591Z,17.27
2023-03-06T10:32:07.630Z,13.57
2023-03-06T10:34:53.280Z,13.10
2023-03-06T10:37:38.262Z,12.50
2023-03-06T10:40:24.970Z,13.40
2023-03-06T10:43:12.185Z,14.00
2023-03-06T10:45:57.751Z,13.47
2023-03-06T10:48:42.880Z,11.90
2023-03-06T10:51:28.529Z,13.10
2023-03-06T10:54:13.712Z,13.67
2023-03-06T10:56:58.415Z,13.10
2023-03-06T10:59:53.884Z,13.70
2023-03-06T11:02:41.074Z,13.47
2023-03-06T11:05:26.279Z,13.13
2023-03-06T11:08:20.265Z,13.23
2023-03-06T11:11:07.260Z,12.97
2023-03-06T11:13:58.724Z,13.80
2023-03-06T11:19:32.661Z,13.40
2023-03-06T11:22:18.561Z,14.37
2023-03-06T11:25:03.582Z,14.27
2023-03-06T11:27:57.740Z,14.67
2023-03-06T11:30:44.582Z,14.17
2023-03-06T11:33:33.946Z,14.33
2023-03-06T11:36:23.146Z,14.50
2023-03-06T11:39:34.317Z,19.43
2023-03-06T11:42:19.337Z,15.85
2023-03-06T11:45:19.550Z,15.83
2023-03-06T11:48:10.484Z,14.80
2023-03-06T11:50:59.315Z,14.25
2023-03-06T11:53:44.265Z,15.67
2023-03-06T11:56:32.019Z,14.23
2023-03-06T11:59:26.099Z,15.20
2023-03-06T12:02:17.027Z,15.00
2023-03-06T12:05:14.269Z,14.57
2023-03-06T12:08:17.403Z,16.37
2023-03-06T12:11:06.373Z,14.37
2023-03-06T12:16:45.483Z,15.53
2023-03-06T12:19:41.392Z,15.60
2023-03-06T12:22:53.403Z,16.67
2023-03-06T12:25:49.019Z,16.83
2023-03-06T12:29:02.458Z,16.93
2023-03-06T12:31:50.333Z,16.97
2023-03-06T12:34:40.347Z,16.20
2023-03-06T12:37:43.511Z,17.20
2023-03-06T12:40:37.787Z,16.77
2023-03-06T12:43:23.013Z,16.77
2023-03-06T12:46:16.077Z,17.63
2023-03-06T12:49:03.494Z,18.07
2023-03-06T12:51:48.623Z,16.53
2023-03-06T12:54:36.604Z,17.77
2023-03-06T12:57:23.801Z,17.07
2023-03-06T13:00:28.855Z,17.00
2023-03-06T13:03:16.916Z,17.23
2023-03-06T13:06:20.838Z,17.30
2023-03-06T13:09:05.771Z,17.10
2023-03-06T13:11:50.510Z,18.02
2023-03-06T13:14:42.268Z,17.93
2023-03-06T13:17:35.736Z,17.67
2023-03-06T13:20:26.644Z,15.55
2023-03-06T13:23:30.106Z,15.73
2023-03-06T13:26:24.181Z,15.82
2023-03-06T13:29:27.930Z,16.40
2023-03-06T13:32:13.611Z,17.15
2023-03-06T13:34:58.495Z,15.73
2023-03-06T13:37:49.981Z,14.73
2023-03-06T13:40:35.404Z,14.38
2023-03-06T13:43:21.480Z,15.00
2023-03-06T13:46:14.457Z,15.07
2023-03-06T13:49:08.394Z,14.63
2023-03-06T13:51:53.332Z,15.25
2023-03-06T13:54:57.182Z,16.05
2023-03-06T13:57:48.015Z,11.75
2023-03-06T14:00:32.996Z,13.13
2023-03-06T14:03:36.931Z,12.43
2023-03-06T14:06:42.230Z,12.85
2023-03-06T14:09:34.215Z,11.52
2023-03-06T14:12:23.634Z,9.82
2023-03-06T14:15:14.845Z,12.25
2023-03-06T14:18:05.235Z,11.07
2023-03-06T14:21:01.453Z,10.53
2023-03-06T14:23:47.148Z,10.75
2023-03-06T14:26:34.211Z,11.75
2023-03-06T14:29:23.847Z,10.93
2023-03-06T14:32:10.677Z,10.57
2023-03-06T14:34:55.986Z,10.48
2023-03-06T14:37:40.861Z,8.98
2023-03-06T14:40:34.124Z,9.80
2023-03-06T14:43:20.560Z,8.95
2023-03-06T14:46:06.629Z,9.50
2023-03-06T14:48:51.665Z,9.52
2023-03-06T14:51:46.889Z,9.25
2023-03-06T14:54:33.251Z,8.93
2023-03-06T14:57:20.668Z,8.75
2023-03-06T15:00:06.868Z,8.70
2023-03-06T15:02:54.397Z,9.50
2023-03-06T15:05:40.519Z,8.57
2023-03-06T15:08:29.603Z,8.75
2023-03-06T15:11:14.832Z,8.70
2023-03-06T15:14:00.900Z,9.05
2023-03-06T15:16:46.141Z,8.93
2023-03-06T15:19:38.345Z,8.88
2023-03-06T15:22:39.833Z,8.57
2023-03-06T15:25:32.518Z,8.82
2023-03-06T15:28:29.987Z,9.40
2023-03-06T15:31:32.128Z,8.98
2023-03-06T15:34:19.646Z,8.32
2023-03-06T15:37:18.952Z,11.48
2023-03-06T15:40:09.178Z,9.68
2023-03-06T15:42:54.326Z,9.23
2023-03-06T15:45:39.131Z,10.13
2023-03-06T15:48:23.978Z,14.00
2023-03-06T15:51:08.855Z,8.52
2023-03-06T15:53:59.810Z,9.07
2023-03-06T15:56:51.676Z,9.13
2023-03-06T15:59:41.389Z,9.52
2023-03-06T16:02:26.323Z,9.30
2023-03-06T16:05:14.908Z,8.48
2023-03-06T16:08:00.142Z,8.13
2023-03-06T16:10:45.667Z,9.25
2023-03-06T16:13:30.618Z,9.45
2023-03-06T16:16:17.215Z,8.98
2023-03-06T16:19:03.264Z,8.82
2023-03-06T16:21:48.027Z,7.70
2023-03-06T16:24:33.008Z,9.15
2023-03-06T16:27:19.143Z,9.77
2023-03-06T16:30:04.637Z,9.55
2023-03-06T16:32:49.586Z,10.18
2023-03-06T16:35:34.377Z,12.07
2023-03-06T16:38:19.327Z,11.83
2023-03-06T16:41:04.411Z,12.60
2023-03-06T16:43:49.870Z,14.43
2023-03-06T16:46:36.991Z,15.43
2023-03-06T16:49:23.494Z,15.83
2023-03-06T16:52:09.626Z,10.70
2023-03-06T16:54:54.794Z,8.30
2023-03-06T16:57:39.540Z,10.77
2023-03-06T17:00:31.168Z,11.07
2023-03-06T17:03:17.801Z,13.37
2023-03-06T17:06:03.540Z,14.50
2023-03-06T17:08:48.953Z,13.67
2023-03-06T17:11:35.629Z,15.40
2023-03-06T17:14:20.418Z,15.07
2023-03-06T17:17:05.566Z,15.07
2023-03-06T17:19:50.739Z,10.97
2023-03-06T17:22:36.169Z,11.13
2023-03-06T17:25:21.193Z,10.73
2023-03-06T17:28:06.364Z,10.40
2023-03-06T17:30:51.086Z,10.77
2023-03-06T17:33:36.297Z,11.03
2023-03-06T17:36:21.516Z,10.47
2023-03-06T17:39:06.606Z,10.00
2023-03-06T17:41:51.265Z,8.93
2023-03-06T17:44:36.204Z,42.37
2023-03-06T17:47:21.100Z,9.17
2023-03-06T17:50:06.170Z,9.30
2023-03-06T17:52:50.976Z,13.37
2023-03-06T17:55:37.923Z,7.90
2023-03-06T17:58:23.104Z,8.67
2023-03-06T18:01:19.240Z,7.27
2023-03-06T18:04:04.218Z,8.20
2023-03-06T18:06:49.054Z,7.13
2023-03-06T18:09:34.842Z,7.93
2023-03-06T18:12:19.703Z,7.60
2023-03-06T18:15:04.758Z,8.13
2023-03-06T18:17:49.767Z,8.50
2023-03-06T18:20:34.893Z,8.00
2023-03-06T18:23:20.042Z,7.80
2023-03-06T18:26:11.473Z,8.27
2023-03-06T18:31:42.157Z,7.73
2023-03-06T18:34:27.331Z,8.33
2023-03-06T18:37:12.304Z,8.33
2023-03-06T18:39:57.200Z,7.90
2023-03-06T18:42:41.963Z,7.57
2023-03-06T18:45:26.793Z,7.20
2023-03-06T18:48:11.730Z,7.80
2023-03-06T18:50:56.594Z,7.40
2023-03-06T18:53:41.433Z,7.73
2023-03-06T18:56:26.278Z,6.90
2023-03-06T18:59:18.248Z,8.03
2023-03-06T19:02:03.690Z,7.23
2023-03-06T19:04:48.773Z,8.13
2023-03-06T19:07:33.621Z,7.23
2023-03-06T19:10:18.331Z,7.30
2023-03-06T19:13:03.760Z,7.30
2023-03-06T19:15:48.995Z,7.03
2023-03-06T19:18:34.267Z,8.20
2023-03-06T19:21:20.478Z,6.90
2023-03-06T19:24:07.440Z,8.53
2023-03-06T19:26:52.485Z,7.60
2023-03-06T19:29:38.453Z,7.77
2023-03-06T19:32:23.655Z,7.97
2023-03-06T19:35:10.871Z,7.20
2023-03-06T19:37:56.081Z,6.97
2023-03-06T19:40:40.890Z,7.70
2023-03-06T19:43:25.847Z,7.63
2023-03-06T19:46:12.454Z,7.30
2023-03-06T19:48:58.842Z,7.87
2023-03-06T19:51:44.304Z,8.13
2023-03-06T19:54:30.856Z,7.40
2023-03-06T19:57:17.276Z,7.73
2023-03-06T20:00:02.451Z,7.00
2023-03-06T20:02:47.321Z,7.50
2023-03-06T20:05:32.364Z,7.80
2023-03-06T20:08:17.100Z,6.67
2023-03-06T20:11:01.917Z,8.13
2023-03-06T20:13:48.015Z,7.37
2023-03-06T20:16:33.654Z,11.17
2023-03-06T20:19:18.702Z,7.50
2023-03-06T20:22:03.730Z,8.57
2023-03-06T20:24:48.605Z,8.80
2023-03-06T20:27:33.461Z,8.53
2023-03-06T20:30:18.524Z,8.23
2023-03-06T20:33:03.360Z,8.30
2023-03-06T20:35:48.222Z,8.30
2023-03-06T20:38:33.182Z,7.43
2023-03-06T20:41:23.097Z,8.60
2023-03-06T20:44:09.111Z,9.03
2023-03-06T20:46:55.223Z,8.83
2023-03-06T20:49:40.317Z,8.53
2023-03-06T20:52:25.152Z,8.40
2023-03-06T20:55:10.079Z,9.30
2023-03-06T20:57:55.173Z,9.00
2023-03-06T21:00:41.247Z,9.40
2023-03-06T21:03:26.297Z,9.23
2023-03-06T21:06:11.332Z,9.07
2023-03-06T21:08:56.720Z,9.73
2023-03-06T21:11:41.886Z,8.10
2023-03-06T21:14:26.672Z,9.13
2023-03-06T21:17:13.835Z,8.70
2023-03-06T21:19:59.137Z,8.70
2023-03-06T21:22:43.916Z,8.53
2023-03-06T21:25:28.924Z,8.77
2023-03-06T21:28:13.878Z,8.17
2023-03-06T21:31:02.309Z,8.53
2023-03-06T21:33:48.860Z,9.17
2023-03-06T21:36:33.929Z,8.40
2023-03-06T21:39:19.132Z,7.83
2023-03-06T21:42:04.084Z,22.43
2023-03-06T21:44:48.953Z,12.87
2023-03-06T21:47:38.454Z,9.53
2023-03-06T21:50:23.662Z,9.53
2023-03-06T21:53:09.261Z,9.93
2023-03-06T21:55:53.923Z,9.60
2023-03-06T21:58:38.873Z,11.07
2023-03-06T22:01:24.984Z,9.23
2023-03-06T22:04:10.059Z,10.30
2023-03-06T22:06:54.752Z,9.73
2023-03-06T22:09:39.550Z,9.33
2023-03-06T22:12:24.456Z,10.37
2023-03-06T22:15:09.528Z,11.03
2023-03-06T22:17:54.564Z,9.53
2023-03-06T22:20:39.713Z,9.77
2023-03-06T22:23:24.791Z,9.80
2023-03-06T22:26:11.177Z,9.80
2023-03-06T22:28:56.587Z,10.50
2023-03-06T22:31:41.750Z,9.90
2023-03-06T22:34:26.582Z,9.93
2023-03-06T22:37:11.400Z,10.73
2023-03-06T22:39:56.150Z,10.87
2023-03-06T22:42:40.996Z,10.53
2023-03-06T22:45:25.783Z,10.17
2023-03-06T22:48:11.600Z,10.33
2023-03-06T22:51:00.859Z,10.67
2023-03-06T22:53:46.023Z,10.63
2023-03-06T22:56:30.976Z,10.43
2023-03-06T22:59:15.926Z,10.77
2023-03-06T23:02:01.133Z,10.57
2023-03-06T23:04:51.978Z,10.50
2023-03-06T23:07:37.384Z,11.30
2023-03-06T23:10:22.289Z,9.90
2023-03-06T23:13:07.261Z,10.57
2023-03-06T23:15:52.254Z,10.30
2023-03-06T23:18:37.142Z,10.83
2023-03-06T23:21:22.941Z,10.93
2023-03-06T23:24:08.066Z,11.30
2023-03-06T23:26:53.076Z,10.57
2023-03-06T23:29:37.899Z,10.23
2023-03-06T23:32:22.772Z,9.73
2023-03-06T23:35:07.868Z,9.93
2023-03-06T23:37:52.942Z,10.10
2023-03-06T23:40:37.910Z,10.43
2023-03-06T23:43:22.837Z,9.83
2023-03-06T23:46:07.859Z,10.47
2023-03-06T23:48:52.815Z,10.33
2023-03-06T23:51:37.562Z,10.07
2023-03-06T23:54:22.403Z,10.23
2023-03-06T23:57:07.356Z,10.53
2023-03-06T23:59:52.283Z,10.00
